weather June 17, 2001

@

2001/06/17 08:20 UTC

EGPF 170820Z 00000KT 9999 BKN035 11/06 Q1019

2001/06/17 08:30 UTC

LFMN 170830Z VRB02KT 9999 FEW021 BKN200 23/10 Q1010 NOSIG


Glasgow 6/17 (wind-knots) Nice 6/17

@@

Ads by TOK2